createdAt,value
2016-08-01T00:00:35.423Z,15.55
2016-08-01T00:01:35.383Z,15.57
2016-08-01T00:02:35.362Z,15.47
2016-08-01T00:03:35.342Z,15.54
2016-08-01T00:04:35.318Z,15.49
2016-08-01T00:05:35.294Z,15.44
2016-08-01T00:06:35.278Z,15.42
2016-08-01T00:07:35.259Z,15.44
2016-08-01T00:08:35.227Z,15.44
2016-08-01T00:09:35.207Z,15.43
2016-08-01T00:10:35.182Z,15.42
2016-08-01T00:11:35.161Z,15.42
2016-08-01T00:12:35.141Z,15.39
2016-08-01T00:13:35.121Z,15.35
2016-08-01T00:14:35.093Z,15.37
2016-08-01T00:15:35.076Z,15.31
2016-08-01T00:16:35.750Z,15.33
2016-08-01T00:17:35.030Z,15.33
2016-08-01T00:18:35.011Z,15.31
2016-08-01T00:19:34.984Z,15.35
2016-08-01T00:20:34.962Z,15.36
2016-08-01T00:21:34.945Z,15.4
2016-08-01T00:22:34.921Z,15.35
2016-08-01T00:23:34.896Z,15.4
2016-08-01T00:24:34.873Z,15.37
2016-08-01T00:25:34.853Z,15.31
2016-08-01T00:26:34.840Z,15.29
2016-08-01T00:27:34.808Z,15.36
2016-08-01T00:28:34.781Z,15.28
2016-08-01T00:29:34.764Z,15.24
2016-08-01T00:30:34.743Z,15.25
2016-08-01T00:31:34.716Z,15.28
2016-08-01T00:32:34.694Z,15.27
2016-08-01T00:33:34.677Z,15.27
2016-08-01T00:34:34.654Z,15.17
2016-08-01T00:35:34.631Z,15.21
2016-08-01T00:36:34.611Z,15.21
2016-08-01T00:37:34.583Z,15.24
2016-08-01T00:38:34.563Z,15.15
2016-08-01T00:39:34.541Z,15.19
2016-08-01T00:40:34.520Z,15.18
2016-08-01T00:41:34.494Z,15.22
2016-08-01T00:42:34.474Z,15.19
2016-08-01T00:43:34.450Z,15.11
2016-08-01T00:44:34.428Z,15.21
2016-08-01T00:45:34.408Z,15.18
2016-08-01T00:46:34.382Z,15.22
2016-08-01T00:47:34.366Z,15.24
2016-08-01T00:49:34.314Z,15.21
2016-08-01T00:50:34.295Z,15.15
2016-08-01T00:51:34.271Z,15.18
2016-08-01T00:52:34.248Z,15.17
2016-08-01T00:53:34.231Z,15.14
2016-08-01T00:54:34.202Z,15.21
2016-08-01T00:55:34.179Z,15.14
2016-08-01T00:56:34.162Z,15.17
2016-08-01T00:57:34.139Z,15.14
2016-08-01T00:58:34.114Z,15.11
2016-08-01T00:59:34.100Z,15.17
2016-08-01T01:00:34.072Z,15.18
2016-08-01T01:01:34.051Z,15.15
2016-08-01T01:02:34.026Z,15.17
2016-08-01T01:04:33.980Z,15.18
2016-08-01T01:05:33.959Z,15.1
2016-08-01T01:06:33.936Z,15.14
2016-08-01T01:07:33.913Z,15.1
2016-08-01T01:08:33.890Z,15.11
2016-08-01T01:09:33.868Z,15.04
2016-08-01T01:10:33.845Z,15.06
2016-08-01T01:11:33.822Z,15.09
2016-08-01T01:12:33.801Z,15.18
2016-08-01T01:13:33.778Z,15.07
2016-08-01T01:14:33.753Z,15.09
2016-08-01T01:15:33.732Z,15.06
2016-08-01T01:16:33.708Z,15.03
2016-08-01T01:17:33.686Z,15.15
2016-08-01T01:19:33.642Z,15.1
2016-08-01T01:20:33.623Z,15.15
2016-08-01T01:21:33.597Z,15.03
2016-08-01T01:22:33.583Z,15.07
2016-08-01T01:23:33.551Z,15.07
2016-08-01T01:24:33.527Z,15.06
2016-08-01T01:25:33.509Z,15
2016-08-01T01:26:33.486Z,15.03
2016-08-01T01:27:33.462Z,15.03
2016-08-01T01:28:33.438Z,15.03
2016-08-01T01:29:33.419Z,14.97
2016-08-01T01:30:33.395Z,15.04
2016-08-01T01:31:33.377Z,14.91
2016-08-01T01:32:33.349Z,14.94
2016-08-01T01:34:33.303Z,14.97
2016-08-01T01:35:33.290Z,15
2016-08-01T01:36:33.264Z,14.96
2016-08-01T01:37:33.237Z,14.88
2016-08-01T01:38:33.211Z,14.94
2016-08-01T01:39:33.195Z,14.97
2016-08-01T01:40:33.174Z,14.91
2016-08-01T01:41:33.151Z,14.86
2016-08-01T01:42:33.134Z,14.97
2016-08-01T01:43:33.099Z,14.94
2016-08-01T01:44:33.076Z,14.86
2016-08-01T01:45:33.060Z,14.99
2016-08-01T01:46:33.034Z,14.89
2016-08-01T01:47:33.009Z,14.91
2016-08-01T01:48:32.987Z,14.91
2016-08-01T01:49:32.964Z,14.81
2016-08-01T01:50:32.946Z,14.92
2016-08-01T01:51:32.918Z,14.89
2016-08-01T01:52:32.897Z,14.85
2016-08-01T01:53:32.870Z,14.86
2016-08-01T01:54:32.864Z,14.85
2016-08-01T01:55:32.829Z,14.84
2016-08-01T01:56:32.806Z,14.81
2016-08-01T01:57:32.785Z,14.88
2016-08-01T01:58:32.760Z,14.85
2016-08-01T01:59:32.734Z,14.82
2016-08-01T02:00:32.713Z,14.81
2016-08-01T02:01:32.691Z,14.84
2016-08-01T02:02:32.666Z,14.84
2016-08-01T02:03:32.665Z,14.85
2016-08-01T02:04:32.626Z,14.91
2016-08-01T02:05:32.598Z,14.82
2016-08-01T02:06:32.585Z,14.89
2016-08-01T02:07:32.559Z,14.84
2016-08-01T02:08:32.531Z,14.91
2016-08-01T02:09:32.523Z,14.84
2016-08-01T02:10:32.499Z,14.82
2016-08-01T02:11:32.466Z,14.89
2016-08-01T02:12:32.447Z,14.81
2016-08-01T02:13:32.422Z,14.79
2016-08-01T02:14:32.397Z,14.84
2016-08-01T02:15:32.373Z,14.84
2016-08-01T02:16:32.348Z,14.85
2016-08-01T02:17:32.328Z,14.86
2016-08-01T02:18:32.313Z,14.82
2016-08-01T02:19:32.282Z,14.86
2016-08-01T02:20:32.256Z,14.85
2016-08-01T02:21:32.239Z,14.84
2016-08-01T02:22:32.216Z,14.85
2016-08-01T02:23:32.191Z,14.81
2016-08-01T02:24:32.169Z,14.89
2016-08-01T02:25:32.145Z,14.86
2016-08-01T02:26:32.124Z,14.94
2016-08-01T02:27:32.101Z,14.89
2016-08-01T02:28:32.078Z,14.94
2016-08-01T02:29:32.056Z,14.91
2016-08-01T02:30:32.036Z,14.86
2016-08-01T02:31:32.011Z,14.91
2016-08-01T02:32:31.987Z,14.89
2016-08-01T02:33:31.965Z,14.92
2016-08-01T02:34:31.941Z,14.86
2016-08-01T02:35:31.922Z,14.86
2016-08-01T02:36:31.897Z,14.97
2016-08-01T02:37:31.876Z,14.96
2016-08-01T02:38:31.850Z,14.99
2016-08-01T02:39:31.828Z,14.94
2016-08-01T02:40:31.809Z,15
2016-08-01T02:41:31.783Z,14.97
2016-08-01T02:42:31.760Z,15
2016-08-01T02:43:31.742Z,15
2016-08-01T02:44:31.717Z,14.97
2016-08-01T02:45:31.701Z,14.99
2016-08-01T02:46:31.674Z,14.88
2016-08-01T02:47:31.649Z,14.94
2016-08-01T02:48:31.631Z,14.91
2016-08-01T02:49:31.605Z,14.97
2016-08-01T02:50:31.582Z,15.02
2016-08-01T02:51:31.562Z,15.02
2016-08-01T02:52:31.535Z,14.94
2016-08-01T02:53:32.206Z,14.97
2016-08-01T02:54:31.494Z,15.09
2016-08-01T02:55:31.478Z,15.03
2016-08-01T02:56:31.443Z,15.04
2016-08-01T02:57:31.426Z,14.96
2016-08-01T02:58:31.402Z,15.06
2016-08-01T02:59:31.392Z,15.1
2016-08-01T03:00:31.357Z,15.09
2016-08-01T03:01:31.337Z,15.1
2016-08-01T03:02:31.314Z,15.06
2016-08-01T03:03:31.980Z,15.06
2016-08-01T03:04:31.266Z,15.15
2016-08-01T03:05:31.244Z,15.14
2016-08-01T03:06:31.220Z,15.15
2016-08-01T03:07:31.200Z,15.15
2016-08-01T03:08:31.179Z,15.03
2016-08-01T03:09:31.154Z,15.11
2016-08-01T03:10:31.135Z,15.19
2016-08-01T03:11:31.110Z,15.15
2016-08-01T03:12:31.098Z,15.15
2016-08-01T03:13:31.068Z,15.19
2016-08-01T03:14:31.043Z,15.19
2016-08-01T03:15:31.021Z,15.11
2016-08-01T03:16:31.008Z,15.09
2016-08-01T03:17:30.976Z,15.18
2016-08-01T03:18:30.952Z,15.07
2016-08-01T03:19:30.933Z,15.14
2016-08-01T03:20:30.916Z,15.02
2016-08-01T03:21:30.887Z,15.19
2016-08-01T03:22:30.871Z,15.17
2016-08-01T03:23:30.840Z,15.14
2016-08-01T03:24:30.817Z,15.17
2016-08-01T03:25:30.800Z,15.14
2016-08-01T03:26:30.779Z,15.1
2016-08-01T03:27:30.749Z,15.07
2016-08-01T03:28:30.731Z,15.06
2016-08-01T03:29:30.706Z,15.02
2016-08-01T03:30:30.683Z,15.06
2016-08-01T03:31:30.662Z,15.03
2016-08-01T03:32:30.643Z,15.09
2016-08-01T03:33:30.620Z,15.03
2016-08-01T03:34:30.598Z,15.1
2016-08-01T03:35:30.586Z,15.11
2016-08-01T03:36:30.555Z,15.14
2016-08-01T03:37:30.529Z,15.07
2016-08-01T03:38:30.510Z,15.06
2016-08-01T03:39:30.488Z,15.06
2016-08-01T03:40:30.460Z,15.02
2016-08-01T03:41:30.443Z,15.04
2016-08-01T03:42:30.419Z,15.07
2016-08-01T03:43:30.393Z,15.06
2016-08-01T03:44:30.375Z,15.11
2016-08-01T03:45:30.351Z,15.18
2016-08-01T03:46:30.329Z,15.14
2016-08-01T03:47:30.307Z,15.17
2016-08-01T03:48:30.300Z,15.15
2016-08-01T03:49:30.265Z,15.09
2016-08-01T03:50:30.255Z,15.15
2016-08-01T03:51:30.216Z,15.17
2016-08-01T03:52:30.202Z,15.21
2016-08-01T03:53:30.175Z,15.1
2016-08-01T03:54:30.151Z,15.14
2016-08-01T03:55:30.126Z,15.15
2016-08-01T03:56:30.107Z,15.18
2016-08-01T03:57:30.080Z,15.17
2016-08-01T03:58:30.057Z,15.22
2016-08-01T03:59:30.036Z,15.21
2016-08-01T04:00:30.015Z,15.18
2016-08-01T04:01:30.000Z,15.21
2016-08-01T04:02:29.977Z,15.18
2016-08-01T04:03:29.952Z,15.15
2016-08-01T04:04:29.929Z,15.21
2016-08-01T04:05:29.910Z,15.17
2016-08-01T04:06:29.881Z,15.19
2016-08-01T04:07:29.862Z,15.15
2016-08-01T04:08:29.837Z,15.19
2016-08-01T04:09:29.812Z,15.21
2016-08-01T04:10:29.792Z,15.17
2016-08-01T04:11:29.773Z,15.21
2016-08-01T04:12:29.747Z,15.22
2016-08-01T04:13:29.728Z,15.27
2016-08-01T04:14:29.705Z,15.21
2016-08-01T04:15:29.680Z,15.22
2016-08-01T04:16:29.659Z,15.1
2016-08-01T04:17:29.639Z,15.21
2016-08-01T04:18:29.616Z,15.15
2016-08-01T04:20:29.570Z,15.29
2016-08-01T04:21:29.550Z,15.18
2016-08-01T04:22:29.529Z,15.18
2016-08-01T04:23:29.509Z,15.22
2016-08-01T04:24:29.481Z,15.24
2016-08-01T04:25:29.458Z,15.21
2016-08-01T04:26:29.436Z,15.28
2016-08-01T04:27:29.413Z,15.33
2016-08-01T04:28:29.398Z,15.25
2016-08-01T04:29:29.373Z,15.27
2016-08-01T04:30:29.346Z,15.35
2016-08-01T04:31:29.328Z,15.36
2016-08-01T04:32:29.305Z,15.4
2016-08-01T04:33:29.281Z,15.43
2016-08-01T04:34:29.264Z,15.42
2016-08-01T04:35:29.243Z,15.39
2016-08-01T04:36:29.211Z,15.4
2016-08-01T04:37:29.193Z,15.4
2016-08-01T04:38:29.171Z,15.47
2016-08-01T04:39:29.148Z,15.52
2016-08-01T04:40:29.132Z,15.43
2016-08-01T04:41:29.105Z,15.44
2016-08-01T04:42:29.086Z,15.46
2016-08-01T04:43:29.060Z,15.49
2016-08-01T04:44:29.049Z,15.42
2016-08-01T04:45:29.022Z,15.49
2016-08-01T04:46:28.997Z,15.59
2016-08-01T04:47:28.972Z,15.54
2016-08-01T04:48:28.955Z,15.54
2016-08-01T04:50:28.915Z,15.67
2016-08-01T04:51:28.890Z,15.65
2016-08-01T04:52:28.868Z,15.62
2016-08-01T04:53:28.845Z,15.65
2016-08-01T04:54:28.822Z,15.68
2016-08-01T04:55:28.803Z,15.73
2016-08-01T04:56:28.781Z,15.75
2016-08-01T04:57:28.766Z,15.86
2016-08-01T04:58:28.736Z,15.76
2016-08-01T04:59:28.717Z,15.77
2016-08-01T05:00:28.698Z,15.83
2016-08-01T05:01:28.677Z,15.83
2016-08-01T05:02:28.657Z,15.88
2016-08-01T05:03:28.629Z,15.84
2016-08-01T05:05:29.279Z,15.98
2016-08-01T05:06:28.567Z,15.92
2016-08-01T05:07:28.623Z,16.01
2016-08-01T05:08:28.523Z,16.05
2016-08-01T05:09:28.505Z,16.1
2016-08-01T05:10:28.484Z,16.05
2016-08-01T05:11:28.459Z,16.08
2016-08-01T05:12:28.444Z,16.1
2016-08-01T05:13:28.422Z,16.05
2016-08-01T05:14:28.404Z,16.04
2016-08-01T05:15:28.388Z,16.08
2016-08-01T05:16:28.363Z,16.13
2016-08-01T05:17:29.027Z,16.16
2016-08-01T05:18:28.568Z,16.2
2016-08-01T05:20:28.271Z,16.29
2016-08-01T05:21:28.255Z,16.31
2016-08-01T05:22:28.231Z,16.33
2016-08-01T05:23:28.208Z,16.33
2016-08-01T05:24:28.188Z,16.41
2016-08-01T05:25:28.166Z,16.41
2016-08-01T05:26:28.147Z,16.36
2016-08-01T05:27:28.132Z,16.41
2016-08-01T05:28:28.108Z,16.49
2016-08-01T05:29:28.092Z,16.54
2016-08-01T05:30:28.066Z,16.51
2016-08-01T05:31:28.044Z,16.51
2016-08-01T05:32:28.082Z,16.56
2016-08-01T05:33:28.002Z,16.61
2016-08-01T05:35:27.970Z,16.65
2016-08-01T05:36:27.944Z,16.71
2016-08-01T05:37:27.922Z,16.69
2016-08-01T05:38:27.908Z,16.72
2016-08-01T05:39:27.881Z,16.71
2016-08-01T05:40:27.857Z,16.72
2016-08-01T05:41:27.841Z,16.78
2016-08-01T05:42:27.836Z,16.84
2016-08-01T05:43:27.800Z,16.86
2016-08-01T05:44:27.781Z,16.93
2016-08-01T05:45:27.764Z,16.94
2016-08-01T05:46:27.742Z,16.99
2016-08-01T05:47:27.727Z,16.96
2016-08-01T05:48:27.701Z,17.01
2016-08-01T05:50:27.671Z,17.01
2016-08-01T05:51:27.640Z,16.96
2016-08-01T05:52:27.622Z,17.02
2016-08-01T05:53:27.607Z,17.02
2016-08-01T05:54:27.583Z,17.06
2016-08-01T05:55:27.565Z,17.14
2016-08-01T05:56:27.541Z,17.2
2016-08-01T05:57:27.523Z,17.27
2016-08-01T05:58:27.509Z,17.27
2016-08-01T05:59:27.490Z,17.26
2016-08-01T06:00:27.465Z,17.31
2016-08-01T06:01:27.447Z,17.33
2016-08-01T06:02:27.436Z,17.48
2016-08-01T06:03:27.405Z,17.45
2016-08-01T06:05:27.372Z,17.38
2016-08-01T06:06:27.347Z,17.49
2016-08-01T06:07:27.497Z,17.42
2016-08-01T06:08:27.309Z,17.56
2016-08-01T06:09:27.982Z,17.64
2016-08-01T06:10:27.273Z,17.65
2016-08-01T06:11:27.253Z,17.68
2016-08-01T06:12:27.236Z,17.74
2016-08-01T06:13:27.216Z,17.78
2016-08-01T06:14:27.198Z,17.79
2016-08-01T06:15:27.197Z,17.79
2016-08-01T06:16:27.162Z,17.87
2016-08-01T06:17:27.245Z,17.94
2016-08-01T06:18:27.815Z,18
2016-08-01T06:19:27.154Z,17.95
2016-08-01T06:20:27.088Z,17.97
2016-08-01T06:21:27.158Z,18.1
2016-08-01T06:22:27.049Z,18.25
2016-08-01T06:23:27.029Z,18.2
2016-08-01T06:24:27.013Z,18.28
2016-08-01T06:25:27.686Z,18.33
2016-08-01T06:26:27.102Z,18.37
2016-08-01T06:27:26.958Z,18.34
2016-08-01T06:28:26.943Z,18.45
2016-08-01T06:29:26.925Z,18.58
2016-08-01T06:30:27.620Z,18.58
2016-08-01T06:31:26.891Z,18.62
2016-08-01T06:32:26.870Z,18.6
2016-08-01T06:33:26.857Z,18.78
2016-08-01T06:34:26.849Z,18.89
2016-08-01T06:35:26.823Z,18.99
2016-08-01T06:36:26.807Z,19.07
2016-08-01T06:37:26.789Z,19.11
2016-08-01T06:38:26.776Z,19.19
2016-08-01T06:39:26.758Z,19.24
2016-08-01T06:40:26.741Z,19.21
2016-08-01T06:41:26.722Z,19.21
2016-08-01T06:42:26.710Z,19.21
2016-08-01T06:43:26.694Z,19.21
2016-08-01T06:44:26.677Z,19.31
2016-08-01T06:45:26.667Z,19.29
2016-08-01T06:46:26.644Z,19.29
2016-08-01T06:47:26.627Z,19.31
2016-08-01T06:48:26.971Z,19.31
2016-08-01T06:49:26.600Z,19.33
2016-08-01T06:50:26.579Z,19.27
2016-08-01T06:51:26.565Z,19.26
2016-08-01T06:52:26.826Z,19.29
2016-08-01T06:53:26.746Z,19.21
2016-08-01T06:54:27.110Z,19.22
2016-08-01T06:55:26.689Z,19.26
2016-08-01T06:56:27.238Z,19.3
2016-08-01T06:57:28.405Z,19.3
2016-08-01T06:58:27.185Z,19.3
2016-08-01T06:59:27.163Z,19.36
2016-08-01T07:00:27.883Z,19.33
2016-08-01T07:01:27.132Z,19.45
2016-08-01T07:02:27.459Z,19.51
2016-08-01T07:03:27.033Z,19.52
2016-08-01T07:04:27.287Z,19.49
2016-08-01T07:05:27.643Z,19.51
2016-08-01T07:06:27.322Z,19.51
2016-08-01T07:07:27.551Z,19.55
2016-08-01T07:08:27.443Z,19.66
2016-08-01T07:09:26.691Z,19.73
2016-08-01T07:10:26.267Z,19.81
2016-08-01T07:11:26.258Z,19.82
2016-08-01T07:12:26.230Z,19.82
2016-08-01T07:13:26.228Z,19.84
2016-08-01T07:14:26.896Z,19.76
2016-08-01T07:15:26.197Z,19.85
2016-08-01T07:16:27.460Z,19.85
2016-08-01T07:17:27.163Z,19.85
2016-08-01T07:18:27.064Z,19.91
2016-08-01T07:19:26.366Z,19.92
2016-08-01T07:20:26.534Z,19.95
2016-08-01T07:21:26.637Z,19.95
2016-08-01T07:22:26.074Z,19.95
2016-08-01T07:23:26.067Z,19.92
2016-08-01T07:24:26.275Z,19.92
2016-08-01T07:25:26.044Z,20
2016-08-01T07:26:26.206Z,19.96
2016-08-01T07:27:25.999Z,20.19
2016-08-01T07:28:25.987Z,20.32
2016-08-01T07:29:26.035Z,20.39
2016-08-01T07:30:26.480Z,20.4
2016-08-01T07:31:25.943Z,20.43
2016-08-01T07:32:28.622Z,20.44
2016-08-01T07:33:28.731Z,20.6
2016-08-01T07:34:27.333Z,20.69
2016-08-01T07:35:27.422Z,20.7
2016-08-01T07:36:27.173Z,20.82
2016-08-01T07:37:27.808Z,20.85
2016-08-01T07:38:27.802Z,20.85
2016-08-01T07:39:27.292Z,20.9
2016-08-01T07:40:27.387Z,20.97
2016-08-01T07:41:27.106Z,21.07
2016-08-01T07:42:28.565Z,21.2
2016-08-01T07:43:27.519Z,21.4
2016-08-01T07:44:27.364Z,21.48
2016-08-01T07:45:27.467Z,21.52
2016-08-01T07:46:27.636Z,21.61
2016-08-01T07:47:27.380Z,21.67
2016-08-01T07:48:27.543Z,21.77
2016-08-01T07:49:27.791Z,21.89
2016-08-01T07:50:28.712Z,22.06
2016-08-01T07:51:28.147Z,22.07
2016-08-01T07:52:28.278Z,22.11
2016-08-01T07:53:27.345Z,22.14
2016-08-01T07:54:27.196Z,22.32
2016-08-01T07:55:27.131Z,22.35
2016-08-01T07:56:27.088Z,22.36
2016-08-01T07:57:27.460Z,22.39
2016-08-01T07:58:27.323Z,22.36
2016-08-01T07:59:27.042Z,22.39
2016-08-01T08:00:27.057Z,22.35
2016-08-01T08:01:27.121Z,22.43
2016-08-01T08:02:27.023Z,22.45
2016-08-01T08:03:27.201Z,22.41
2016-08-01T08:04:27.408Z,22.28
2016-08-01T08:05:27.023Z,22.29
2016-08-01T08:06:27.845Z,22.22
2016-08-01T08:07:26.925Z,22.33
2016-08-01T08:08:26.706Z,22.28
2016-08-01T08:09:27.731Z,22.29
2016-08-01T08:10:28.392Z,22.29
2016-08-01T08:11:26.821Z,22.22
2016-08-01T08:12:26.795Z,22.18
2016-08-01T08:13:27.124Z,22.17
2016-08-01T08:14:26.769Z,22.11
2016-08-01T08:15:26.656Z,22.1
2016-08-01T08:16:26.938Z,22.06
2016-08-01T08:17:26.643Z,22.14
2016-08-01T08:18:27.173Z,22.15
2016-08-01T08:19:26.875Z,22.04
2016-08-01T08:20:26.560Z,22.06
2016-08-01T08:21:26.686Z,22.08
2016-08-01T08:22:27.586Z,21.99
2016-08-01T08:23:26.304Z,21.92
2016-08-01T08:24:26.411Z,21.88
2016-08-01T08:25:26.668Z,21.95
2016-08-01T08:26:26.538Z,21.91
2016-08-01T08:27:26.607Z,22.02
2016-08-01T08:28:26.178Z,22.04
2016-08-01T08:29:26.101Z,22.13
2016-08-01T08:30:26.402Z,22.15
2016-08-01T08:31:26.419Z,22.23
2016-08-01T08:32:26.313Z,22.22
2016-08-01T08:33:26.386Z,22.32
2016-08-01T08:34:26.748Z,22.44
2016-08-01T08:35:26.801Z,22.36
2016-08-01T08:36:27.606Z,22.48
2016-08-01T08:37:26.539Z,22.51
2016-08-01T08:38:26.247Z,22.57
2016-08-01T08:39:26.195Z,22.62
2016-08-01T08:40:26.102Z,22.72
2016-08-01T08:41:26.156Z,22.72
2016-08-01T08:42:26.495Z,22.72
2016-08-01T08:43:26.507Z,22.81
2016-08-01T08:44:26.385Z,22.69
2016-08-01T08:45:26.084Z,22.76
2016-08-01T08:46:25.800Z,22.72
2016-08-01T08:47:26.344Z,22.69
2016-08-01T08:48:26.198Z,22.57
2016-08-01T08:49:26.249Z,22.6
2016-08-01T08:50:26.583Z,22.6
2016-08-01T08:51:25.932Z,22.45
2016-08-01T08:52:26.283Z,22.45
2016-08-01T08:53:26.534Z,22.45
2016-08-01T08:54:26.373Z,22.43
2016-08-01T08:55:26.338Z,22.32
2016-08-01T08:56:25.958Z,22.47
2016-08-01T08:57:26.601Z,22.3
2016-08-01T08:58:26.284Z,22.41
2016-08-01T08:59:25.867Z,22.39
2016-08-01T09:00:26.134Z,22.57
2016-08-01T09:01:26.280Z,22.65
2016-08-01T09:02:27.182Z,22.83
2016-08-01T09:03:26.222Z,22.98
2016-08-01T09:04:25.992Z,22.98
2016-08-01T09:06:25.993Z,22.98
2016-08-01T09:07:25.977Z,23
2016-08-01T09:08:25.929Z,23
2016-08-01T09:09:26.000Z,22.99
2016-08-01T09:10:27.714Z,23
2016-08-01T09:11:25.984Z,23
2016-08-01T09:12:25.937Z,23.08
2016-08-01T09:13:26.736Z,22.96
2016-08-01T09:14:25.789Z,23.15
2016-08-01T09:15:25.601Z,23.17
2016-08-01T09:16:25.856Z,23.17
2016-08-01T09:17:25.553Z,23.18
2016-08-01T09:18:25.658Z,23.13
2016-08-01T09:19:25.429Z,23.24
2016-08-01T09:21:25.676Z,23
2016-08-01T09:22:26.303Z,22.96
2016-08-01T09:23:25.397Z,22.87
2016-08-01T09:24:27.977Z,22.85
2016-08-01T09:25:25.722Z,22.84
2016-08-01T09:26:25.708Z,22.66
2016-08-01T09:27:25.757Z,22.55
2016-08-01T09:28:25.651Z,22.5
2016-08-01T09:29:25.726Z,22.33
2016-08-01T09:30:25.334Z,22.44
2016-08-01T09:31:25.363Z,22.38
2016-08-01T09:32:25.355Z,22.38
2016-08-01T09:33:26.699Z,22.38
2016-08-01T09:34:26.930Z,22.43
2016-08-01T09:36:25.695Z,22.53
2016-08-01T09:37:25.905Z,22.51
2016-08-01T09:38:25.764Z,22.48
2016-08-01T09:39:25.304Z,22.41
2016-08-01T09:40:25.365Z,22.39
2016-08-01T09:41:25.235Z,22.45
2016-08-01T09:42:24.609Z,22.36
2016-08-01T09:43:25.450Z,22.28
2016-08-01T09:44:26.401Z,22.28
2016-08-01T09:45:24.486Z,22.22
2016-08-01T09:46:24.621Z,22.17
2016-08-01T09:47:25.293Z,22.14
2016-08-01T09:48:24.472Z,22.18
2016-08-01T09:49:24.700Z,22.15
2016-08-01T09:51:25.050Z,22.18
2016-08-01T09:52:25.367Z,22.22
2016-08-01T09:53:24.795Z,22.32
2016-08-01T09:54:25.398Z,22.3
2016-08-01T09:55:25.111Z,22.36
2016-08-01T09:56:25.305Z,22.45
2016-08-01T09:57:25.358Z,22.43
2016-08-01T09:58:26.124Z,22.53
2016-08-01T09:59:25.251Z,22.63
2016-08-01T10:00:25.265Z,22.7
2016-08-01T10:01:25.201Z,22.76
2016-08-01T10:02:25.078Z,22.75
2016-08-01T10:03:24.937Z,22.83
2016-08-01T10:04:25.572Z,22.8
2016-08-01T10:06:26.019Z,22.93
2016-08-01T10:07:25.835Z,22.87
2016-08-01T10:08:26.333Z,22.96
2016-08-01T10:09:26.055Z,22.88
2016-08-01T10:10:26.147Z,22.93
2016-08-01T10:11:25.775Z,22.94
2016-08-01T10:12:25.859Z,22.99
2016-08-01T10:13:25.696Z,22.85
2016-08-01T10:14:26.156Z,22.84
2016-08-01T10:15:26.375Z,22.93
2016-08-01T10:16:27.052Z,22.93
2016-08-01T10:17:25.201Z,22.93
2016-08-01T10:18:25.819Z,22.84
2016-08-01T10:19:24.826Z,22.88
2016-08-01T10:21:24.463Z,22.91
2016-08-01T10:22:25.237Z,22.9
2016-08-01T10:23:24.481Z,22.87
2016-08-01T10:24:24.798Z,22.87
2016-08-01T10:25:24.430Z,23.02
2016-08-01T10:26:24.514Z,23.05
2016-08-01T10:27:24.611Z,23.09
2016-08-01T10:28:24.508Z,23.1
2016-08-01T10:29:24.596Z,23.12
2016-08-01T10:30:24.794Z,23.09
2016-08-01T10:31:24.607Z,23.13
2016-08-01T10:32:24.157Z,23.21
2016-08-01T10:33:24.176Z,23.21
2016-08-01T10:34:24.748Z,23.13
2016-08-01T10:36:24.249Z,23
2016-08-01T10:37:24.417Z,23.06
2016-08-01T10:38:24.352Z,23.18
2016-08-01T10:39:24.404Z,23.05
2016-08-01T10:40:24.599Z,23.08
2016-08-01T10:41:24.317Z,23.17
2016-08-01T10:42:24.372Z,23.09
2016-08-01T10:43:24.484Z,23.13
2016-08-01T10:44:24.494Z,23.15
2016-08-01T10:45:24.437Z,23.21
2016-08-01T10:46:24.465Z,23.21
2016-08-01T10:47:24.075Z,23.34
2016-08-01T10:48:24.044Z,23.32
2016-08-01T10:49:24.262Z,23.37
2016-08-01T10:50:24.762Z,23.47
2016-08-01T10:51:24.229Z,23.56
2016-08-01T10:52:24.488Z,23.56
2016-08-01T10:53:23.909Z,23.77
2016-08-01T10:54:24.691Z,24.16
2016-08-01T10:55:24.447Z,24.32
2016-08-01T10:56:24.433Z,24.66
2016-08-01T10:57:24.417Z,24.84
2016-08-01T10:58:24.253Z,24.96
2016-08-01T10:59:24.372Z,25.03
2016-08-01T11:00:24.116Z,25.16
2016-08-01T11:01:24.167Z,25.29
2016-08-01T11:02:23.950Z,25.41
2016-08-01T11:03:23.997Z,25.43
2016-08-01T11:04:24.611Z,25.48
2016-08-01T11:05:24.435Z,25.66
2016-08-01T11:06:24.359Z,25.66
2016-08-01T11:07:24.203Z,25.87
2016-08-01T11:08:24.378Z,26.07
2016-08-01T11:09:25.349Z,26.34
2016-08-01T11:10:24.146Z,26.48
2016-08-01T11:11:24.188Z,26.45
2016-08-01T11:12:24.440Z,26.62
2016-08-01T11:13:23.466Z,26.58
2016-08-01T11:14:24.243Z,26.78
2016-08-01T11:15:23.813Z,26.85
2016-08-01T11:16:24.270Z,26.84
2016-08-01T11:17:24.464Z,27
2016-08-01T11:18:23.976Z,26.97
2016-08-01T11:19:24.470Z,27.08
2016-08-01T11:20:24.480Z,26.96
2016-08-01T11:21:23.585Z,26.78
2016-08-01T11:22:23.356Z,26.7
2016-08-01T11:23:24.140Z,26.6
2016-08-01T11:24:23.626Z,26.75
2016-08-01T11:25:23.562Z,26.88
2016-08-01T11:26:24.286Z,27.05
2016-08-01T11:27:24.235Z,27.12
2016-08-01T11:28:24.097Z,27.21
2016-08-01T11:29:24.800Z,27.21
2016-08-01T11:30:23.982Z,27.26
2016-08-01T11:31:23.686Z,27.02
2016-08-01T11:32:24.175Z,27.12
2016-08-01T11:33:24.183Z,27.11
2016-08-01T11:34:24.578Z,27.11
2016-08-01T11:35:24.871Z,27.27
2016-08-01T11:36:23.528Z,27.22
2016-08-01T11:37:24.242Z,27.17
2016-08-01T11:38:23.042Z,27.26
2016-08-01T11:39:23.736Z,27.2
2016-08-01T11:40:23.227Z,27.11
2016-08-01T11:41:24.156Z,27.1
2016-08-01T11:42:24.187Z,27.05
2016-08-01T11:43:23.275Z,27.15
2016-08-01T11:44:24.106Z,26.97
2016-08-01T11:45:24.032Z,26.8
2016-08-01T11:46:23.940Z,26.78
2016-08-01T11:47:23.604Z,26.73
2016-08-01T11:48:23.676Z,26.78
2016-08-01T11:49:23.682Z,26.71
2016-08-01T11:50:24.017Z,26.48
2016-08-01T11:51:23.735Z,26.43
2016-08-01T11:52:23.571Z,26.6
2016-08-01T11:53:23.691Z,26.85
2016-08-01T11:54:23.430Z,26.92
2016-08-01T11:55:23.565Z,26.9
2016-08-01T11:56:24.978Z,26.88
2016-08-01T11:57:24.413Z,26.88
2016-08-01T11:58:23.087Z,26.92
2016-08-01T11:59:23.258Z,26.9
2016-08-01T12:00:22.913Z,26.97
2016-08-01T12:01:22.943Z,26.97
2016-08-01T12:02:23.648Z,26.93
2016-08-01T12:03:22.792Z,26.92
2016-08-01T12:04:22.948Z,26.92
2016-08-01T12:05:22.837Z,26.85
2016-08-01T12:06:23.299Z,26.89
2016-08-01T12:07:22.840Z,27.03
2016-08-01T12:08:22.760Z,27.15
2016-08-01T12:09:22.754Z,27.21
2016-08-01T12:10:23.176Z,27.32
2016-08-01T12:11:22.817Z,27.42
2016-08-01T12:12:22.889Z,27.64
2016-08-01T12:13:23.363Z,27.68
2016-08-01T12:14:22.706Z,27.87
2016-08-01T12:15:22.694Z,27.87
2016-08-01T12:16:22.693Z,28.11
2016-08-01T12:17:23.239Z,28.29
2016-08-01T12:18:22.785Z,28.3
2016-08-01T12:19:23.002Z,28.39
2016-08-01T12:20:22.674Z,28.39
2016-08-01T12:21:23.409Z,28.41
2016-08-01T12:22:23.017Z,28.35
2016-08-01T12:23:23.141Z,28.38
2016-08-01T12:24:22.661Z,28.22
2016-08-01T12:25:22.844Z,28.11
2016-08-01T12:26:23.051Z,28.08
2016-08-01T12:27:22.657Z,27.96
2016-08-01T12:28:22.639Z,27.98
2016-08-01T12:29:23.126Z,27.95
2016-08-01T12:30:23.023Z,27.85
2016-08-01T12:31:23.366Z,27.77
2016-08-01T12:32:22.969Z,27.74
2016-08-01T12:33:23.146Z,27.68
2016-08-01T12:34:22.596Z,27.52
2016-08-01T12:35:22.877Z,27.51
2016-08-01T12:36:22.703Z,27.52
2016-08-01T12:37:22.923Z,27.64
2016-08-01T12:38:22.725Z,27.65
2016-08-01T12:39:22.680Z,27.83
2016-08-01T12:40:22.943Z,28
2016-08-01T12:41:22.616Z,28.2
2016-08-01T12:42:22.580Z,28.33
2016-08-01T12:43:23.169Z,28.39
2016-08-01T12:44:22.555Z,28.42
2016-08-01T12:45:23.701Z,28.33
2016-08-01T12:46:22.583Z,28.33
2016-08-01T12:47:22.533Z,28.39
2016-08-01T12:48:23.148Z,28.26
2016-08-01T12:49:22.531Z,28.12
2016-08-01T12:50:22.911Z,28
2016-08-01T12:51:23.533Z,27.9
2016-08-01T12:52:22.900Z,27.8
2016-08-01T12:53:23.659Z,27.54
2016-08-01T12:54:23.693Z,27.35
2016-08-01T12:55:23.131Z,27.17
2016-08-01T12:56:25.034Z,27.05
2016-08-01T12:57:24.421Z,27.1
2016-08-01T12:58:22.727Z,27.1
2016-08-01T12:59:22.875Z,27
2016-08-01T13:00:22.733Z,26.96
2016-08-01T13:01:23.173Z,26.93
2016-08-01T13:02:23.040Z,26.93
2016-08-01T13:03:23.446Z,26.88
2016-08-01T13:04:22.675Z,26.85
2016-08-01T13:05:22.747Z,26.88
2016-08-01T13:06:23.087Z,26.78
2016-08-01T13:07:23.030Z,26.73
2016-08-01T13:08:22.801Z,26.78
2016-08-01T13:09:23.600Z,26.68
2016-08-01T13:10:23.242Z,26.65
2016-08-01T13:11:22.467Z,26.68
2016-08-01T13:12:23.445Z,26.66
2016-08-01T13:13:22.508Z,26.75
2016-08-01T13:14:22.308Z,26.78